Cottonwood, Illinois
Current Conditions -  °F | °C
As of 5:53 PM on Friday 31 Oct 2014 (Local Time) from KMTO Reporting Station
Overcast Overcast  
Wind Chill: 27°   Ceiling: 5000
Heat Index: 38°   Visibility: 10mi
Dew Point: 23°   Wind: 24mph
Humidity: 55%   Direction: 340°NNW
Pressure: 30.23"   Gusts: 32mph
Location:  39.2896°N, 88.2485°W
Report Text: KMTO 312253Z AUTO 34021G28KT 10SM OVC050 03/M05 A3023 RMK AO2 PK WND 34037/2159 SLP242 T00331050
Loading
Personal Weather Stations






























Interactive Weather Map
Tropical Storm Tracking
New forecast layout! Learn more

10-Day Weather Forecast

Advertisements
Track Severe Weather on mobile